createdAt,value
2024-02-15T00:01:06.680Z,13.50
2024-02-15T00:03:52.023Z,13.07
2024-02-15T00:06:19.021Z,13.00
2024-02-15T00:08:46.122Z,10.03
2024-02-15T00:11:14.850Z,14.00
2024-02-15T00:13:42.130Z,15.97
2024-02-15T00:16:09.080Z,14.17
2024-02-15T00:18:36.170Z,14.33
2024-02-15T00:21:03.146Z,13.73
2024-02-15T00:23:30.116Z,19.27
2024-02-15T00:25:57.038Z,19.90
2024-02-15T00:28:25.096Z,18.17
2024-02-15T00:30:52.013Z,13.80
2024-02-15T00:33:19.009Z,14.53
2024-02-15T00:35:46.249Z,15.37
2024-02-15T00:38:13.157Z,14.97
2024-02-15T00:40:41.096Z,13.13
2024-02-15T00:43:08.010Z,17.13
2024-02-15T00:45:34.937Z,15.60
2024-02-15T00:48:02.060Z,14.07
2024-02-15T00:50:29.331Z,15.20
2024-02-15T00:52:56.417Z,12.90
2024-02-15T00:55:23.400Z,13.80
2024-02-15T00:57:50.335Z,12.77
2024-02-15T01:00:17.479Z,12.83
2024-02-15T01:02:44.461Z,14.00
2024-02-15T01:05:11.511Z,15.40
2024-02-15T01:07:38.555Z,14.00
2024-02-15T01:10:07.112Z,13.60
2024-02-15T01:12:34.199Z,15.70
2024-02-15T01:15:01.155Z,16.10
2024-02-15T01:17:28.216Z,18.30
2024-02-15T01:19:55.259Z,15.60
2024-02-15T01:22:24.868Z,17.53
2024-02-15T01:24:51.912Z,12.43
2024-02-15T01:27:18.859Z,14.83
2024-02-15T01:29:45.783Z,15.80
2024-02-15T01:32:12.723Z,15.27
2024-02-15T01:34:39.664Z,14.10
2024-02-15T01:37:06.707Z,14.33
2024-02-15T01:39:33.647Z,13.90
2024-02-15T01:42:00.653Z,16.73
2024-02-15T01:44:28.005Z,12.57
2024-02-15T01:46:55.688Z,15.43
2024-02-15T01:49:28.777Z,14.77
2024-02-15T01:51:58.200Z,17.77
2024-02-15T01:54:26.073Z,15.07
2024-02-15T01:56:53.972Z,14.93
2024-02-15T01:59:24.093Z,15.17
2024-02-15T02:01:52.007Z,16.90
2024-02-15T02:04:18.906Z,18.93
2024-02-15T02:06:45.870Z,16.67
2024-02-15T02:09:17.014Z,17.40
2024-02-15T02:11:47.629Z,17.17
2024-02-15T02:14:14.824Z,19.00
2024-02-15T02:16:41.742Z,19.40
2024-02-15T02:19:10.536Z,22.70
2024-02-15T02:21:39.964Z,17.20
2024-02-15T02:24:22.525Z,19.17
2024-02-15T02:26:50.294Z,17.23
2024-02-15T02:29:17.711Z,19.10
2024-02-15T02:31:44.649Z,19.47
2024-02-15T02:34:12.017Z,16.53
2024-02-15T02:36:39.200Z,20.80
2024-02-15T02:39:06.242Z,20.53
2024-02-15T02:41:33.382Z,20.83
2024-02-15T02:44:00.436Z,21.70
2024-02-15T02:46:27.401Z,18.50
2024-02-15T02:48:54.513Z,17.77
2024-02-15T02:51:21.639Z,17.50
2024-02-15T02:53:48.760Z,21.60
2024-02-15T02:56:16.017Z,17.90
2024-02-15T02:58:45.722Z,15.30
2024-02-15T03:01:12.843Z,28.93
2024-02-15T03:03:40.825Z,19.30
2024-02-15T03:06:08.045Z,22.70
2024-02-15T03:08:35.386Z,18.53
2024-02-15T03:11:02.834Z,20.83
2024-02-15T03:13:30.376Z,15.80
2024-02-15T03:15:57.331Z,18.93
2024-02-15T03:18:25.647Z,21.30
2024-02-15T03:20:53.079Z,18.10
2024-02-15T03:23:20.134Z,18.93
2024-02-15T03:25:47.090Z,19.00
2024-02-15T03:28:14.873Z,18.80
2024-02-15T03:30:41.775Z,24.00
2024-02-15T03:33:08.771Z,31.30
2024-02-15T03:35:36.440Z,21.00
2024-02-15T03:38:03.483Z,20.23
2024-02-15T03:40:31.500Z,23.40
2024-02-15T03:42:58.833Z,22.40
2024-02-15T03:45:27.139Z,19.30
2024-02-15T03:47:55.042Z,19.17
2024-02-15T03:50:23.185Z,16.80
2024-02-15T03:52:51.655Z,21.23
2024-02-15T03:55:18.907Z,15.67
2024-02-15T03:57:47.672Z,24.00
2024-02-15T04:00:22.596Z,17.23
2024-02-15T04:02:50.486Z,16.57
2024-02-15T04:05:19.517Z,15.60
2024-02-15T04:07:46.773Z,17.77
2024-02-15T04:10:14.136Z,17.30
2024-02-15T04:12:43.308Z,16.37
2024-02-15T04:15:15.658Z,17.00
2024-02-15T04:17:43.812Z,13.50
2024-02-15T04:20:13.304Z,16.37
2024-02-15T04:22:43.592Z,13.83
2024-02-15T04:25:11.557Z,14.43
2024-02-15T04:27:38.638Z,15.30
2024-02-15T04:30:06.128Z,16.00
2024-02-15T04:32:35.582Z,13.73
2024-02-15T04:35:04.359Z,13.10
2024-02-15T04:37:33.640Z,12.60
2024-02-15T04:40:09.318Z,15.13
2024-02-15T04:42:40.710Z,16.50
2024-02-15T04:45:13.745Z,12.10
2024-02-15T04:47:44.636Z,13.10
2024-02-15T04:50:12.149Z,11.93
2024-02-15T04:52:39.569Z,13.30
2024-02-15T04:55:06.989Z,12.30
2024-02-15T04:57:36.153Z,11.80
2024-02-15T05:00:10.404Z,12.83
2024-02-15T05:02:41.424Z,14.27
2024-02-15T05:05:09.260Z,11.50
2024-02-15T05:07:38.622Z,14.60
2024-02-15T05:10:07.744Z,11.67
2024-02-15T05:12:34.832Z,12.20
2024-02-15T05:15:02.019Z,11.60
2024-02-15T05:17:31.057Z,11.60
2024-02-15T05:20:00.309Z,14.40
2024-02-15T05:22:30.348Z,14.10
2024-02-15T05:24:57.256Z,10.30
2024-02-15T05:27:24.578Z,12.00
2024-02-15T05:29:53.846Z,12.93
2024-02-15T05:32:21.334Z,13.70
2024-02-15T05:34:49.082Z,11.73
2024-02-15T05:37:16.957Z,12.40
2024-02-15T05:39:44.189Z,12.40
2024-02-15T05:42:11.684Z,10.47
2024-02-15T05:44:38.675Z,10.80
2024-02-15T05:47:05.747Z,12.27
2024-02-15T05:49:32.795Z,10.00
2024-02-15T05:51:59.825Z,11.30
2024-02-15T05:54:26.753Z,14.40
2024-02-15T05:56:55.047Z,10.93
2024-02-15T05:59:22.349Z,13.33
2024-02-15T06:01:49.682Z,13.20
2024-02-15T06:04:17.945Z,12.47
2024-02-15T06:06:49.817Z,12.57
2024-02-15T06:09:17.688Z,15.03
2024-02-15T06:11:46.658Z,13.27
2024-02-15T06:14:13.944Z,12.97
2024-02-15T06:16:47.197Z,13.80
2024-02-15T06:19:15.829Z,17.40
2024-02-15T06:21:43.437Z,15.00
2024-02-15T06:24:11.579Z,15.90
2024-02-15T06:26:38.767Z,18.30
2024-02-15T06:29:24.216Z,14.13
2024-02-15T06:32:09.684Z,19.33
2024-02-15T06:34:55.676Z,16.37
2024-02-15T06:37:59.465Z,16.30
2024-02-15T06:40:26.351Z,16.27
2024-02-15T06:42:53.303Z,17.20
2024-02-15T06:45:20.961Z,23.70
2024-02-15T06:47:48.208Z,19.20
2024-02-15T06:50:15.528Z,17.77
2024-02-15T06:52:42.785Z,18.90
2024-02-15T06:55:13.065Z,16.10
2024-02-15T06:57:42.851Z,27.13
2024-02-15T07:00:16.846Z,18.43
2024-02-15T07:02:45.795Z,23.27
2024-02-15T07:05:13.005Z,24.37
2024-02-15T07:07:40.420Z,23.50
2024-02-15T07:10:08.122Z,23.80
2024-02-15T07:12:35.259Z,21.83
2024-02-15T07:15:03.015Z,27.80
2024-02-15T07:17:30.575Z,22.67
2024-02-15T07:19:57.591Z,22.90
2024-02-15T07:22:24.575Z,20.33
2024-02-15T07:24:51.521Z,24.27
2024-02-15T07:27:19.633Z,24.27
2024-02-15T07:29:46.607Z,20.87
2024-02-15T07:32:13.619Z,22.90
2024-02-15T07:34:40.588Z,22.93
2024-02-15T07:37:08.685Z,21.73
2024-02-15T07:39:37.375Z,22.40
2024-02-15T07:42:05.826Z,22.77
2024-02-15T07:44:33.548Z,21.77
2024-02-15T07:47:03.560Z,22.43
2024-02-15T07:49:30.653Z,26.13
2024-02-15T07:51:57.677Z,20.20
2024-02-15T07:54:25.484Z,21.10
2024-02-15T07:56:53.005Z,23.30
2024-02-15T07:59:20.901Z,21.40
2024-02-15T08:01:48.997Z,23.30
2024-02-15T08:04:18.158Z,26.83
2024-02-15T08:06:45.594Z,23.97
2024-02-15T08:09:15.089Z,27.23
2024-02-15T08:11:42.392Z,23.30
2024-02-15T08:14:14.012Z,25.77
2024-02-15T08:16:44.208Z,25.97
2024-02-15T08:19:12.314Z,26.40
2024-02-15T08:21:42.323Z,29.30
2024-02-15T08:24:10.489Z,28.20
2024-02-15T08:26:43.174Z,24.60
2024-02-15T08:29:10.602Z,28.70
2024-02-15T08:31:37.828Z,28.70
2024-02-15T08:34:07.069Z,27.67
2024-02-15T08:36:34.319Z,23.27
2024-02-15T08:39:01.983Z,28.07
2024-02-15T08:41:29.367Z,24.33
2024-02-15T08:43:59.147Z,28.90
2024-02-15T08:46:28.041Z,25.63
2024-02-15T08:48:55.134Z,28.87
2024-02-15T08:51:24.629Z,31.23
2024-02-15T08:53:52.506Z,30.33
2024-02-15T08:56:19.670Z,29.00
2024-02-15T08:58:46.640Z,34.50
2024-02-15T09:01:14.643Z,28.53
2024-02-15T09:03:41.862Z,30.67
2024-02-15T09:06:09.248Z,32.07
2024-02-15T09:08:36.589Z,33.63
2024-02-15T09:11:06.174Z,29.10
2024-02-15T09:13:34.947Z,29.80
2024-02-15T09:16:02.081Z,28.20
2024-02-15T09:18:29.119Z,27.67
2024-02-15T09:20:57.165Z,30.63
2024-02-15T09:23:24.821Z,28.70
2024-02-15T09:25:54.796Z,30.63
2024-02-15T09:28:24.903Z,30.50
2024-02-15T09:30:54.634Z,26.97
2024-02-15T09:33:22.147Z,35.83
2024-02-15T09:35:49.388Z,26.53
2024-02-15T09:38:18.019Z,30.87
2024-02-15T09:40:45.526Z,33.00
2024-02-15T09:43:16.133Z,38.37
2024-02-15T09:45:43.422Z,30.90
2024-02-15T09:48:14.293Z,31.50
2024-02-15T09:50:46.832Z,33.73
2024-02-15T09:53:16.118Z,34.50
2024-02-15T09:55:44.208Z,33.20
2024-02-15T09:58:13.639Z,28.27
2024-02-15T10:00:40.779Z,30.43
2024-02-15T10:03:08.490Z,29.23
2024-02-15T10:05:36.403Z,30.20
2024-02-15T10:08:04.378Z,32.40
2024-02-15T10:10:31.282Z,28.50
2024-02-15T10:13:01.933Z,27.10
2024-02-15T10:15:41.438Z,28.57
2024-02-15T10:18:13.577Z,30.10
2024-02-15T10:20:45.366Z,32.43
2024-02-15T10:23:14.391Z,29.93
2024-02-15T10:25:42.313Z,26.90
2024-02-15T10:28:16.564Z,27.07
2024-02-15T10:30:46.329Z,25.13
2024-02-15T10:33:31.186Z,22.10
2024-02-15T10:36:15.731Z,21.63
2024-02-15T10:38:43.285Z,25.93
2024-02-15T10:41:12.115Z,42.77
2024-02-15T10:43:39.645Z,21.23
2024-02-15T10:46:11.045Z,28.80
2024-02-15T10:48:39.181Z,19.63
2024-02-15T10:51:12.083Z,28.50
2024-02-15T10:53:48.608Z,19.93
2024-02-15T10:56:24.374Z,21.57
2024-02-15T10:58:52.159Z,20.70
2024-02-15T11:01:19.759Z,26.00
2024-02-15T11:03:53.966Z,22.30
2024-02-15T11:06:23.017Z,19.50
2024-02-15T11:08:51.035Z,20.10
2024-02-15T11:11:19.268Z,20.43
2024-02-15T11:13:48.883Z,18.90
2024-02-15T11:16:49.766Z,24.00
2024-02-15T11:19:38.466Z,22.50
2024-02-15T11:22:18.127Z,23.03
2024-02-15T11:24:54.112Z,25.17
2024-02-15T11:27:32.737Z,23.60
2024-02-15T11:30:11.494Z,28.70
2024-02-15T11:32:50.136Z,20.60
2024-02-15T11:35:21.417Z,22.20
2024-02-15T11:37:59.310Z,21.80
2024-02-15T11:40:31.106Z,23.57
2024-02-15T11:43:01.370Z,21.90
2024-02-15T11:45:39.664Z,22.67
2024-02-15T11:48:12.342Z,27.27
2024-02-15T11:50:40.946Z,21.10
2024-02-15T11:53:13.131Z,26.23
2024-02-15T11:55:42.729Z,20.93
2024-02-15T11:58:11.899Z,29.80
2024-02-15T12:00:59.078Z,31.97
2024-02-15T12:06:37.397Z,21.73
2024-02-15T12:09:23.473Z,21.23
2024-02-15T12:12:18.294Z,20.77
2024-02-15T12:15:04.058Z,22.27
2024-02-15T12:17:49.896Z,21.47
2024-02-15T12:20:16.978Z,19.40
2024-02-15T12:22:51.426Z,19.73
2024-02-15T12:25:22.167Z,23.33
2024-02-15T12:28:00.927Z,23.33
2024-02-15T12:30:37.458Z,20.80
2024-02-15T12:33:12.760Z,20.27
2024-02-15T12:35:39.982Z,21.30
2024-02-15T12:38:06.957Z,25.47
2024-02-15T12:40:37.387Z,25.53
2024-02-15T12:43:06.871Z,17.30
2024-02-15T12:45:37.920Z,24.73
2024-02-15T12:48:07.052Z,22.47
2024-02-15T12:50:37.742Z,19.57
2024-02-15T12:53:05.113Z,22.00
2024-02-15T12:55:36.234Z,21.90
2024-02-15T12:58:09.478Z,19.90
2024-02-15T13:00:41.000Z,20.87
2024-02-15T13:03:11.086Z,21.63
2024-02-15T13:05:39.566Z,23.50
2024-02-15T13:08:10.777Z,21.10
2024-02-15T13:10:40.336Z,21.20
2024-02-15T13:13:07.786Z,18.20
2024-02-15T13:15:35.442Z,18.13
2024-02-15T13:18:05.888Z,16.73
2024-02-15T13:20:34.109Z,21.73
2024-02-15T13:23:10.442Z,20.17
2024-02-15T13:25:40.469Z,18.80
2024-02-15T13:28:10.012Z,19.97
2024-02-15T13:30:37.516Z,16.43
2024-02-15T13:33:04.883Z,17.80
2024-02-15T13:35:32.917Z,18.00
2024-02-15T13:37:59.865Z,16.57
2024-02-15T13:40:28.898Z,16.57
2024-02-15T13:43:00.763Z,17.37
2024-02-15T13:45:38.355Z,20.13
2024-02-15T13:48:06.435Z,16.13
2024-02-15T13:50:33.983Z,16.70
2024-02-15T13:53:01.663Z,15.93
2024-02-15T13:55:30.079Z,21.23
2024-02-15T13:57:57.974Z,17.50
2024-02-15T14:00:30.894Z,14.70
2024-02-15T14:03:00.569Z,31.33
2024-02-15T14:05:30.284Z,24.30
2024-02-15T14:08:06.549Z,26.73
2024-02-15T14:10:37.366Z,16.20
2024-02-15T14:13:10.305Z,16.97
2024-02-15T14:15:41.686Z,22.90
2024-02-15T14:18:12.471Z,15.80
2024-02-15T14:20:39.995Z,16.43
2024-02-15T14:23:07.457Z,14.57
2024-02-15T14:25:34.835Z,15.37
2024-02-15T14:28:04.027Z,19.60
2024-02-15T14:30:49.552Z,12.73
2024-02-15T14:35:47.440Z,14.77
2024-02-15T14:38:14.955Z,16.33
2024-02-15T14:40:46.230Z,17.07
2024-02-15T14:43:19.723Z,11.87
2024-02-15T14:45:47.138Z,12.93
2024-02-15T14:48:15.150Z,13.40
2024-02-15T14:50:43.551Z,13.00
2024-02-15T14:53:10.724Z,12.70
2024-02-15T14:55:43.991Z,12.63
2024-02-15T14:58:13.455Z,20.50
2024-02-15T15:00:43.605Z,11.20
2024-02-15T15:03:13.107Z,14.40
2024-02-15T15:05:59.370Z,12.37
2024-02-15T15:08:45.313Z,14.20
2024-02-15T15:11:30.811Z,23.10
2024-02-15T15:13:57.792Z,13.97
2024-02-15T15:16:26.413Z,13.53
2024-02-15T15:18:53.740Z,12.93
2024-02-15T15:21:23.936Z,16.77
2024-02-15T15:23:51.248Z,15.57
2024-02-15T15:26:22.829Z,12.30
2024-02-15T15:28:51.032Z,14.03
2024-02-15T15:31:18.596Z,12.50
2024-02-15T15:33:46.074Z,16.97
2024-02-15T15:36:13.495Z,12.23
2024-02-15T15:38:40.706Z,15.67
2024-02-15T15:41:10.983Z,13.27
2024-02-15T15:43:38.765Z,15.83
2024-02-15T15:46:06.345Z,19.43
2024-02-15T15:48:37.965Z,16.20
2024-02-15T15:51:06.675Z,14.53
2024-02-15T15:53:35.271Z,16.83
2024-02-15T15:56:02.540Z,19.73
2024-02-15T15:58:29.578Z,20.30
2024-02-15T16:00:57.458Z,16.87
2024-02-15T16:03:24.560Z,18.90
2024-02-15T16:05:52.210Z,18.17
2024-02-15T16:08:19.147Z,17.63
2024-02-15T16:10:46.562Z,24.53
2024-02-15T16:13:13.995Z,24.60
2024-02-15T16:15:44.866Z,25.13
2024-02-15T16:18:11.951Z,32.27
2024-02-15T16:20:39.643Z,24.27
2024-02-15T16:23:07.569Z,28.30
2024-02-15T16:25:35.148Z,20.87
2024-02-15T16:28:03.392Z,19.00
2024-02-15T16:30:30.472Z,19.17
2024-02-15T16:32:57.579Z,15.20
2024-02-15T16:35:24.624Z,17.53
2024-02-15T16:37:51.561Z,15.70
2024-02-15T16:40:18.494Z,14.27
2024-02-15T16:42:48.739Z,13.90
2024-02-15T16:45:19.595Z,24.17
2024-02-15T16:47:57.092Z,20.40
2024-02-15T16:50:24.834Z,11.20
2024-02-15T16:52:52.697Z,14.37
2024-02-15T16:55:29.404Z,15.90
2024-02-15T16:58:04.411Z,15.03
2024-02-15T17:00:32.856Z,17.97
2024-02-15T17:03:00.095Z,13.93
2024-02-15T17:05:29.552Z,15.03
2024-02-15T17:08:00.265Z,14.87
2024-02-15T17:10:27.546Z,14.47
2024-02-15T17:12:54.889Z,12.63
2024-02-15T17:15:26.894Z,13.90
2024-02-15T17:17:55.596Z,13.07
2024-02-15T17:20:24.353Z,12.13
2024-02-15T17:22:51.624Z,15.50
2024-02-15T17:25:18.706Z,11.47
2024-02-15T17:27:45.682Z,12.43
2024-02-15T17:30:14.665Z,14.60
2024-02-15T17:32:44.413Z,11.80
2024-02-15T17:35:14.354Z,12.13
2024-02-15T17:37:42.243Z,12.73
2024-02-15T17:40:13.597Z,11.83
2024-02-15T17:42:42.290Z,12.30
2024-02-15T17:45:11.031Z,11.70
2024-02-15T17:47:40.609Z,11.20
2024-02-15T17:50:15.390Z,16.83
2024-02-15T17:52:44.937Z,16.00
2024-02-15T17:55:12.006Z,13.60
2024-02-15T17:57:39.775Z,10.97
2024-02-15T18:00:16.053Z,14.33
2024-02-15T18:02:50.029Z,14.20
2024-02-15T18:05:19.708Z,10.50
2024-02-15T18:07:47.403Z,12.67
2024-02-15T18:10:16.053Z,13.87
2024-02-15T18:12:43.333Z,14.30
2024-02-15T18:15:25.441Z,16.10
2024-02-15T18:17:57.587Z,15.13
2024-02-15T18:20:25.973Z,14.43
2024-02-15T18:22:53.250Z,13.77
2024-02-15T18:25:20.348Z,19.33
2024-02-15T18:27:48.008Z,19.53
2024-02-15T18:30:19.315Z,15.30
2024-02-15T18:32:47.217Z,13.03
2024-02-15T18:35:17.061Z,12.50
2024-02-15T18:37:44.685Z,10.07
2024-02-15T18:40:21.786Z,14.47
2024-02-15T18:42:52.047Z,11.40
2024-02-15T18:45:19.320Z,13.47
2024-02-15T18:47:46.658Z,10.70
2024-02-15T18:50:14.022Z,12.83
2024-02-15T18:52:42.102Z,10.67
2024-02-15T18:55:11.742Z,11.07
2024-02-15T18:57:38.707Z,11.33
2024-02-15T19:00:16.030Z,11.67
2024-02-15T19:02:53.196Z,15.40
2024-02-15T19:05:23.840Z,15.90
2024-02-15T19:07:52.118Z,11.70
2024-02-15T19:10:20.979Z,12.60
2024-02-15T19:12:48.086Z,15.90
2024-02-15T19:15:15.780Z,18.53
2024-02-15T19:17:42.942Z,18.87
2024-02-15T19:20:10.729Z,16.57
2024-02-15T19:22:41.677Z,13.80
2024-02-15T19:25:10.297Z,15.10
2024-02-15T19:27:37.932Z,13.07
2024-02-15T19:30:05.424Z,13.07
2024-02-15T19:32:32.386Z,9.10
2024-02-15T19:34:59.581Z,9.30
2024-02-15T19:37:31.172Z,18.40
2024-02-15T19:39:58.119Z,10.10
2024-02-15T19:42:25.097Z,10.20
2024-02-15T19:44:52.061Z,9.13
2024-02-15T19:47:21.445Z,12.20
2024-02-15T19:49:48.406Z,9.07
2024-02-15T19:52:16.781Z,9.87
2024-02-15T19:54:43.713Z,10.97
2024-02-15T19:57:10.677Z,10.80
2024-02-15T19:59:37.705Z,10.23
2024-02-15T20:02:04.857Z,9.70
2024-02-15T20:04:36.595Z,12.10
2024-02-15T20:07:04.714Z,7.83
2024-02-15T20:09:40.391Z,8.53
2024-02-15T20:12:15.006Z,11.90
2024-02-15T20:14:42.400Z,10.47
2024-02-15T20:17:11.236Z,10.30
2024-02-15T20:19:38.999Z,11.03
2024-02-15T20:22:06.066Z,11.90
2024-02-15T20:24:33.841Z,10.27
2024-02-15T20:27:01.538Z,12.00
2024-02-15T20:29:31.526Z,11.37
2024-02-15T20:31:59.585Z,15.03
2024-02-15T20:34:27.748Z,12.57
2024-02-15T20:36:54.861Z,12.30
2024-02-15T20:39:22.347Z,10.63
2024-02-15T20:41:50.229Z,10.43
2024-02-15T20:44:18.131Z,13.27
2024-02-15T20:46:45.633Z,8.33
2024-02-15T20:49:14.137Z,11.27
2024-02-15T20:51:41.297Z,13.83
2024-02-15T20:54:08.255Z,12.07
2024-02-15T20:56:37.620Z,13.70
2024-02-15T20:59:06.333Z,11.30
2024-02-15T21:01:34.963Z,12.67
2024-02-15T21:04:05.990Z,14.47
2024-02-15T21:06:33.428Z,9.30
2024-02-15T21:09:00.590Z,9.93
2024-02-15T21:11:27.612Z,13.93
2024-02-15T21:13:54.525Z,10.47
2024-02-15T21:16:22.856Z,10.63
2024-02-15T21:18:54.118Z,17.37
2024-02-15T21:21:23.269Z,13.67
2024-02-15T21:23:50.444Z,11.60
2024-02-15T21:26:17.679Z,19.83
2024-02-15T21:28:45.302Z,32.83
2024-02-15T21:31:16.487Z,15.20
2024-02-15T21:33:47.259Z,20.53
2024-02-15T21:36:15.414Z,15.90
2024-02-15T21:38:44.787Z,13.83
2024-02-15T21:41:12.649Z,12.20
2024-02-15T21:43:39.762Z,13.07
2024-02-15T21:46:06.753Z,14.37
2024-02-15T21:48:34.386Z,11.80
2024-02-15T21:51:01.580Z,12.43
2024-02-15T21:53:28.584Z,15.73
2024-02-15T21:55:55.549Z,9.67
2024-02-15T21:58:22.440Z,10.50
2024-02-15T22:00:49.385Z,11.83
2024-02-15T22:03:16.966Z,10.30
2024-02-15T22:05:44.024Z,9.17
2024-02-15T22:08:14.736Z,16.10
2024-02-15T22:10:42.493Z,9.80
2024-02-15T22:13:15.380Z,11.83
2024-02-15T22:15:42.513Z,14.80
2024-02-15T22:18:10.196Z,17.00
2024-02-15T22:20:37.222Z,12.40
2024-02-15T22:23:04.350Z,19.03
2024-02-15T22:25:34.060Z,9.63
2024-02-15T22:28:00.969Z,8.87
2024-02-15T22:30:28.063Z,12.23
2024-02-15T22:32:56.995Z,9.20
2024-02-15T22:35:24.826Z,13.40
2024-02-15T22:37:51.820Z,10.37
2024-02-15T22:40:18.908Z,16.97
2024-02-15T22:42:45.814Z,12.50
2024-02-15T22:45:14.474Z,10.40
2024-02-15T22:47:43.139Z,11.10
2024-02-15T22:50:10.448Z,12.70
2024-02-15T22:52:38.070Z,9.80
2024-02-15T22:55:05.360Z,13.73
2024-02-15T22:57:32.847Z,12.47
2024-02-15T23:00:00.341Z,12.13
2024-02-15T23:02:27.313Z,15.60
2024-02-15T23:04:54.339Z,13.00
2024-02-15T23:07:24.452Z,11.53
2024-02-15T23:09:51.609Z,12.57
2024-02-15T23:12:18.733Z,8.97
2024-02-15T23:14:45.847Z,11.13
2024-02-15T23:17:12.966Z,10.97
2024-02-15T23:19:40.600Z,14.20
2024-02-15T23:22:10.090Z,11.57
2024-02-15T23:24:38.558Z,13.50
2024-02-15T23:27:06.476Z,11.90
2024-02-15T23:29:33.667Z,13.03
2024-02-15T23:32:00.603Z,15.60
2024-02-15T23:34:27.554Z,11.07
2024-02-15T23:37:13.344Z,12.90
2024-02-15T23:39:58.801Z,10.30
2024-02-15T23:42:26.583Z,16.83
2024-02-15T23:44:54.463Z,13.33
2024-02-15T23:47:21.605Z,12.43
2024-02-15T23:49:49.128Z,11.20
2024-02-15T23:52:16.265Z,14.10
2024-02-15T23:54:43.335Z,12.80
2024-02-15T23:57:10.515Z,13.57
2024-02-15T23:59:37.522Z,12.60
